sensor_id;sensor_type;location;lat;lon;timestamp;temperature;humidity
51739;DHT22;37815;52.692;6.226;2022-12-17T00:04:10;4.40;97.90
51739;DHT22;37815;52.692;6.226;2022-12-17T00:09:30;4.40;97.90
51739;DHT22;37815;52.692;6.226;2022-12-17T00:14:49;5.20;98.20
51739;DHT22;37815;52.692;6.226;2022-12-17T00:20:12;4.40;98.00
51739;DHT22;37815;52.692;6.226;2022-12-17T00:25:39;4.40;98.00
51739;DHT22;37815;52.692;6.226;2022-12-17T00:30:58;4.40;98.00
51739;DHT22;37815;52.692;6.226;2022-12-17T00:36:17;4.40;97.90
51739;DHT22;37815;52.692;6.226;2022-12-17T00:41:36;4.90;98.10
51739;DHT22;37815;52.692;6.226;2022-12-17T00:46:56;5.50;98.20
51739;DHT22;37815;52.692;6.226;2022-12-17T00:52:15;4.40;97.90
51739;DHT22;37815;52.692;6.226;2022-12-17T00:57:35;4.40;97.90
51739;DHT22;37815;52.692;6.226;2022-12-17T01:03:03;4.70;98.00
51739;DHT22;37815;52.692;6.226;2022-12-17T01:08:23;4.40;97.90
51739;DHT22;37815;52.692;6.226;2022-12-17T01:13:42;4.40;97.90
51739;DHT22;37815;52.692;6.226;2022-12-17T01:19:02;4.40;97.90
51739;DHT22;37815;52.692;6.226;2022-12-17T01:24:21;4.40;97.90
51739;DHT22;37815;52.692;6.226;2022-12-17T01:29:40;4.80;98.00
51739;DHT22;37815;52.692;6.226;2022-12-17T01:35:00;5.10;98.10
51739;DHT22;37815;52.692;6.226;2022-12-17T01:40:19;4.90;98.00
51739;DHT22;37815;52.692;6.226;2022-12-17T01:45:44;5.20;98.10
51739;DHT22;37815;52.692;6.226;2022-12-17T01:51:05;5.70;98.20
51739;DHT22;37815;52.692;6.226;2022-12-17T01:56:28;5.10;98.10
51739;DHT22;37815;52.692;6.226;2022-12-17T02:01:48;5.90;98.30
51739;DHT22;37815;52.692;6.226;2022-12-17T02:17:55;4.40;97.90
51739;DHT22;37815;52.692;6.226;2022-12-17T02:23:37;4.40;97.90
51739;DHT22;37815;52.692;6.226;2022-12-17T02:28:57;4.40;97.80
51739;DHT22;37815;52.692;6.226;2022-12-17T02:34:17;4.60;97.90
51739;DHT22;37815;52.692;6.226;2022-12-17T02:39:37;4.30;97.80
51739;DHT22;37815;52.692;6.226;2022-12-17T02:44:56;4.90;98.00
51739;DHT22;37815;52.692;6.226;2022-12-17T02:50:16;4.30;97.80
51739;DHT22;37815;52.692;6.226;2022-12-17T02:55:36;4.30;97.80
51739;DHT22;37815;52.692;6.226;2022-12-17T03:00:55;4.50;97.90
51739;DHT22;37815;52.692;6.226;2022-12-17T03:06:14;5.90;98.20
51739;DHT22;37815;52.692;6.226;2022-12-17T03:11:34;4.30;97.80
51739;DHT22;37815;52.692;6.226;2022-12-17T03:16:53;5.60;98.10
51739;DHT22;37815;52.692;6.226;2022-12-17T03:22:13;4.40;97.80
51739;DHT22;37815;52.692;6.226;2022-12-17T03:27:32;4.30;97.80
51739;DHT22;37815;52.692;6.226;2022-12-17T03:32:52;4.30;97.80
51739;DHT22;37815;52.692;6.226;2022-12-17T03:38:11;4.30;97.80
51739;DHT22;37815;52.692;6.226;2022-12-17T03:43:30;4.30;97.70
51739;DHT22;37815;52.692;6.226;2022-12-17T03:49:06;4.30;97.80
51739;DHT22;37815;52.692;6.226;2022-12-17T03:54:25;5.90;98.20
51739;DHT22;37815;52.692;6.226;2022-12-17T03:59:45;4.30;97.80
51739;DHT22;37815;52.692;6.226;2022-12-17T04:05:05;4.30;97.80
51739;DHT22;37815;52.692;6.226;2022-12-17T04:10:24;4.30;97.80
51739;DHT22;37815;52.692;6.226;2022-12-17T04:15:43;4.30;97.80
51739;DHT22;37815;52.692;6.226;2022-12-17T04:21:03;4.30;97.80
51739;DHT22;37815;52.692;6.226;2022-12-17T04:26:22;4.30;97.80
51739;DHT22;37815;52.692;6.226;2022-12-17T04:31:41;5.70;98.10
51739;DHT22;37815;52.692;6.226;2022-12-17T04:37:00;4.30;97.80
51739;DHT22;37815;52.692;6.226;2022-12-17T04:42:20;4.70;97.90
51739;DHT22;37815;52.692;6.226;2022-12-17T04:47:39;5.90;98.20
51739;DHT22;37815;52.692;6.226;2022-12-17T04:53:04;4.30;97.60
51739;DHT22;37815;52.692;6.226;2022-12-17T04:58:24;4.30;97.80
51739;DHT22;37815;52.692;6.226;2022-12-17T05:03:53;5.20;98.00
51739;DHT22;37815;52.692;6.226;2022-12-17T05:09:13;4.30;97.80
51739;DHT22;37815;52.692;6.226;2022-12-17T05:14:32;4.70;97.80
51739;DHT22;37815;52.692;6.226;2022-12-17T05:19:51;4.30;97.70
51739;DHT22;37815;52.692;6.226;2022-12-17T05:25:11;4.90;97.90
51739;DHT22;37815;52.692;6.226;2022-12-17T05:30:30;5.60;98.10
51739;DHT22;37815;52.692;6.226;2022-12-17T05:35:50;5.70;98.10
51739;DHT22;37815;52.692;6.226;2022-12-17T05:41:09;4.30;97.80
51739;DHT22;37815;52.692;6.226;2022-12-17T05:46:29;5.40;98.00
51739;DHT22;37815;52.692;6.226;2022-12-17T05:51:48;5.30;98.00
51739;DHT22;37815;52.692;6.226;2022-12-17T05:57:07;4.40;97.70
51739;DHT22;37815;52.692;6.226;2022-12-17T06:02:26;4.30;97.70
51739;DHT22;37815;52.692;6.226;2022-12-17T06:07:46;4.30;97.70
51739;DHT22;37815;52.692;6.226;2022-12-17T06:13:05;4.70;97.80
51739;DHT22;37815;52.692;6.226;2022-12-17T06:18:25;4.20;97.70
51739;DHT22;37815;52.692;6.226;2022-12-17T06:23:44;5.00;97.90
51739;DHT22;37815;52.692;6.226;2022-12-17T06:29:03;4.20;97.70
51739;DHT22;37815;52.692;6.226;2022-12-17T06:34:23;4.20;97.70
51739;DHT22;37815;52.692;6.226;2022-12-17T06:39:42;5.50;98.00
51739;DHT22;37815;52.692;6.226;2022-12-17T06:45:02;4.20;97.70
51739;DHT22;37815;52.692;6.226;2022-12-17T06:50:21;4.20;97.70
51739;DHT22;37815;52.692;6.226;2022-12-17T06:55:42;5.60;98.30
51739;DHT22;37815;52.692;6.226;2022-12-17T07:01:02;4.20;97.60
51739;DHT22;37815;52.692;6.226;2022-12-17T07:06:21;4.20;97.60
51739;DHT22;37815;52.692;6.226;2022-12-17T07:11:40;4.20;97.60
51739;DHT22;37815;52.692;6.226;2022-12-17T07:17:00;4.20;97.70
51739;DHT22;37815;52.692;6.226;2022-12-17T07:22:19;4.50;97.70
51739;DHT22;37815;52.692;6.226;2022-12-17T07:27:39;4.70;97.80
51739;DHT22;37815;52.692;6.226;2022-12-17T07:33:02;4.20;97.70
51739;DHT22;37815;52.692;6.226;2022-12-17T07:38:21;4.20;97.50
51739;DHT22;37815;52.692;6.226;2022-12-17T07:43:40;5.40;97.90
51739;DHT22;37815;52.692;6.226;2022-12-17T07:49:00;4.10;97.60
51739;DHT22;37815;52.692;6.226;2022-12-17T07:54:19;4.10;97.60
51739;DHT22;37815;52.692;6.226;2022-12-17T07:59:39;5.30;97.90
51739;DHT22;37815;52.692;6.226;2022-12-17T08:04:58;4.10;97.60
51739;DHT22;37815;52.692;6.226;2022-12-17T08:10:20;4.10;97.60
51739;DHT22;37815;52.692;6.226;2022-12-17T08:15:40;4.10;97.60
51739;DHT22;37815;52.692;6.226;2022-12-17T08:21:04;5.30;97.90
51739;DHT22;37815;52.692;6.226;2022-12-17T08:26:24;4.10;97.60
51739;DHT22;37815;52.692;6.226;2022-12-17T08:31:43;4.80;97.70
51739;DHT22;37815;52.692;6.226;2022-12-17T08:37:03;4.10;97.50
51739;DHT22;37815;52.692;6.226;2022-12-17T08:42:22;4.10;97.50
51739;DHT22;37815;52.692;6.226;2022-12-17T08:47:42;4.10;97.50
51739;DHT22;37815;52.692;6.226;2022-12-17T08:53:03;5.30;97.80
51739;DHT22;37815;52.692;6.226;2022-12-17T08:58:22;4.10;97.40
51739;DHT22;37815;52.692;6.226;2022-12-17T09:03:42;4.10;97.10
51739;DHT22;37815;52.692;6.226;2022-12-17T09:09:04;4.10;97.40
51739;DHT22;37815;52.692;6.226;2022-12-17T09:14:24;3.00;97.10
51739;DHT22;37815;52.692;6.226;2022-12-17T09:19:43;4.10;97.40
51739;DHT22;37815;52.692;6.226;2022-12-17T09:25:03;4.20;97.40
51739;DHT22;37815;52.692;6.226;2022-12-17T09:30:22;4.10;97.40
51739;DHT22;37815;52.692;6.226;2022-12-17T09:35:42;4.10;97.40
51739;DHT22;37815;52.692;6.226;2022-12-17T09:41:25;4.10;97.30
51739;DHT22;37815;52.692;6.226;2022-12-17T09:47:01;4.20;97.40
51739;DHT22;37815;52.692;6.226;2022-12-17T09:52:33;4.20;97.10
51739;DHT22;37815;52.692;6.226;2022-12-17T09:57:54;4.20;97.30
51739;DHT22;37815;52.692;6.226;2022-12-17T10:03:21;4.20;97.30
51739;DHT22;37815;52.692;6.226;2022-12-17T10:08:41;4.60;97.30
51739;DHT22;37815;52.692;6.226;2022-12-17T10:14:03;4.20;97.20
51739;DHT22;37815;52.692;6.226;2022-12-17T10:19:28;4.20;97.20
51739;DHT22;37815;52.692;6.226;2022-12-17T10:24:48;4.30;97.30
51739;DHT22;37815;52.692;6.226;2022-12-17T10:30:14;5.60;97.50
51739;DHT22;37815;52.692;6.226;2022-12-17T10:35:35;4.40;97.20
51739;DHT22;37815;52.692;6.226;2022-12-17T10:40:55;4.40;97.20
51739;DHT22;37815;52.692;6.226;2022-12-17T10:46:54;4.40;97.20
51739;DHT22;37815;52.692;6.226;2022-12-17T10:57:35;4.90;97.20
51739;DHT22;37815;52.692;6.226;2022-12-17T11:02:56;4.30;97.30
51739;DHT22;37815;52.692;6.226;2022-12-17T11:08:15;6.00;97.70
51739;DHT22;37815;52.692;6.226;2022-12-17T11:13:40;4.40;97.10
51739;DHT22;37815;52.692;6.226;2022-12-17T11:24:38;4.40;97.20
51739;DHT22;37815;52.692;6.226;2022-12-17T11:29:59;4.40;97.20
51739;DHT22;37815;52.692;6.226;2022-12-17T11:35:24;4.50;97.30
51739;DHT22;37815;52.692;6.226;2022-12-17T11:40:51;4.50;97.30
51739;DHT22;37815;52.692;6.226;2022-12-17T11:46:22;5.80;97.60
51739;DHT22;37815;52.692;6.226;2022-12-17T11:52:00;4.50;97.30
51739;DHT22;37815;52.692;6.226;2022-12-17T11:57:50;4.50;97.20
51739;DHT22;37815;52.692;6.226;2022-12-17T12:09:09;4.50;97.20
51739;DHT22;37815;52.692;6.226;2022-12-17T12:26:21;4.80;97.50
51739;DHT22;37815;52.692;6.226;2022-12-17T12:31:50;4.90;97.30
51739;DHT22;37815;52.692;6.226;2022-12-17T12:37:14;5.50;97.40
51739;DHT22;37815;52.692;6.226;2022-12-17T12:42:48;4.90;97.40
51739;DHT22;37815;52.692;6.226;2022-12-17T12:48:38;4.80;97.40
51739;DHT22;37815;52.692;6.226;2022-12-17T12:54:23;4.50;97.00
51739;DHT22;37815;52.692;6.226;2022-12-17T12:59:48;4.40;97.60
51739;DHT22;37815;52.692;6.226;2022-12-17T13:10:36;4.50;97.50
51739;DHT22;37815;52.692;6.226;2022-12-17T13:15:43;3.40;97.20
51739;DHT22;37815;52.692;6.226;2022-12-17T13:21:22;4.40;97.80
51739;DHT22;37815;52.692;6.226;2022-12-17T13:26:41;4.30;97.80
51739;DHT22;37815;52.692;6.226;2022-12-17T13:31:51;4.30;97.70
51739;DHT22;37815;52.692;6.226;2022-12-17T13:37:22;5.20;97.80
51739;DHT22;37815;52.692;6.226;2022-12-17T13:42:27;4.40;97.50
51739;DHT22;37815;52.692;6.226;2022-12-17T13:47:32;4.40;97.50
51739;DHT22;37815;52.692;6.226;2022-12-17T13:52:33;5.90;97.90
51739;DHT22;37815;52.692;6.226;2022-12-17T13:57:35;4.40;97.50
51739;DHT22;37815;52.692;6.226;2022-12-17T14:02:36;4.40;97.50
51739;DHT22;37815;52.692;6.226;2022-12-17T14:07:38;5.70;97.80
51739;DHT22;37815;52.692;6.226;2022-12-17T14:12:39;4.40;97.40
51739;DHT22;37815;52.692;6.226;2022-12-17T14:17:44;5.70;97.70
51739;DHT22;37815;52.692;6.226;2022-12-17T14:23:03;5.90;97.80
51739;DHT22;37815;52.692;6.226;2022-12-17T14:28:32;4.70;97.50
51739;DHT22;37815;52.692;6.226;2022-12-17T14:33:35;4.30;97.40
51739;DHT22;37815;52.692;6.226;2022-12-17T14:38:36;4.30;97.50
51739;DHT22;37815;52.692;6.226;2022-12-17T14:43:37;4.20;97.40
51739;DHT22;37815;52.692;6.226;2022-12-17T14:48:38;4.20;97.40
51739;DHT22;37815;52.692;6.226;2022-12-17T14:59:34;4.20;97.20
51739;DHT22;37815;52.692;6.226;2022-12-17T15:04:36;4.20;97.40
51739;DHT22;37815;52.692;6.226;2022-12-17T15:09:38;4.20;97.40
51739;DHT22;37815;52.692;6.226;2022-12-17T15:14:39;4.10;97.40
51739;DHT22;37815;52.692;6.226;2022-12-17T15:19:40;4.10;97.40
51739;DHT22;37815;52.692;6.226;2022-12-17T15:24:41;4.10;97.40
51739;DHT22;37815;52.692;6.226;2022-12-17T15:29:43;4.10;97.40
51739;DHT22;37815;52.692;6.226;2022-12-17T15:34:43;4.10;97.40
51739;DHT22;37815;52.692;6.226;2022-12-17T15:39:44;4.10;97.40
51739;DHT22;37815;52.692;6.226;2022-12-17T15:44:45;4.00;97.60
51739;DHT22;37815;52.692;6.226;2022-12-17T15:49:45;4.00;97.40
51739;DHT22;37815;52.692;6.226;2022-12-17T15:54:46;4.00;97.40
51739;DHT22;37815;52.692;6.226;2022-12-17T15:59:50;4.00;97.40
51739;DHT22;37815;52.692;6.226;2022-12-17T16:04:51;4.00;97.70
51739;DHT22;37815;52.692;6.226;2022-12-17T16:09:52;4.10;97.60
51739;DHT22;37815;52.692;6.226;2022-12-17T16:14:52;4.30;97.50
51739;DHT22;37815;52.692;6.226;2022-12-17T16:19:53;4.10;97.50
51739;DHT22;37815;52.692;6.226;2022-12-17T16:24:57;4.10;97.50
51739;DHT22;37815;52.692;6.226;2022-12-17T16:30:04;4.00;97.60
51739;DHT22;37815;52.692;6.226;2022-12-17T16:35:25;4.30;98.60
51739;DHT22;37815;52.692;6.226;2022-12-17T16:40:27;4.50;99.90
51739;DHT22;37815;52.692;6.226;2022-12-17T16:45:28;5.20;97.50
51739;DHT22;37815;52.692;6.226;2022-12-17T16:50:29;5.20;97.50
51739;DHT22;37815;52.692;6.226;2022-12-17T16:55:29;5.00;97.40
51739;DHT22;37815;52.692;6.226;2022-12-17T17:00:30;4.90;97.60
51739;DHT22;37815;52.692;6.226;2022-12-17T17:05:36;5.50;97.90
51739;DHT22;37815;52.692;6.226;2022-12-17T17:10:36;4.60;97.80
51739;DHT22;37815;52.692;6.226;2022-12-17T17:15:37;4.50;97.90
51739;DHT22;37815;52.692;6.226;2022-12-17T17:20:38;4.40;97.90
51739;DHT22;37815;52.692;6.226;2022-12-17T17:25:38;4.30;97.90
51739;DHT22;37815;52.692;6.226;2022-12-17T17:30:39;4.30;97.90
51739;DHT22;37815;52.692;6.226;2022-12-17T17:35:40;4.20;97.90
51739;DHT22;37815;52.692;6.226;2022-12-17T17:40:40;4.20;97.90
51739;DHT22;37815;52.692;6.226;2022-12-17T17:45:41;4.10;97.90
51739;DHT22;37815;52.692;6.226;2022-12-17T17:50:42;5.50;98.20
51739;DHT22;37815;52.692;6.226;2022-12-17T17:55:43;4.10;97.80
51739;DHT22;37815;52.692;6.226;2022-12-17T18:00:43;4.10;97.80
51739;DHT22;37815;52.692;6.226;2022-12-17T18:05:44;4.70;98.00
51739;DHT22;37815;52.692;6.226;2022-12-17T18:10:54;4.10;97.80
51739;DHT22;37815;52.692;6.226;2022-12-17T18:15:59;4.10;97.80
51739;DHT22;37815;52.692;6.226;2022-12-17T18:21:03;4.10;97.70
51739;DHT22;37815;52.692;6.226;2022-12-17T18:31:20;4.00;97.70
51739;DHT22;37815;52.692;6.226;2022-12-17T18:36:28;4.00;97.70
51739;DHT22;37815;52.692;6.226;2022-12-17T18:41:30;4.00;97.70
51739;DHT22;37815;52.692;6.226;2022-12-17T18:46:49;4.20;97.70
51739;DHT22;37815;52.692;6.226;2022-12-17T18:51:50;4.80;97.80
51739;DHT22;37815;52.692;6.226;2022-12-17T18:56:53;3.90;97.60
51739;DHT22;37815;52.692;6.226;2022-12-17T19:01:54;4.20;97.70
51739;DHT22;37815;52.692;6.226;2022-12-17T19:06:55;4.00;97.60
51739;DHT22;37815;52.692;6.226;2022-12-17T19:11:57;4.70;97.70
51739;DHT22;37815;52.692;6.226;2022-12-17T19:16:58;4.30;97.90
51739;DHT22;37815;52.692;6.226;2022-12-17T19:21:58;3.80;97.50
51739;DHT22;37815;52.692;6.226;2022-12-17T19:26:59;3.80;97.50
51739;DHT22;37815;52.692;6.226;2022-12-17T19:32:00;4.70;97.70
51739;DHT22;37815;52.692;6.226;2022-12-17T19:37:00;4.80;97.70
51739;DHT22;37815;52.692;6.226;2022-12-17T19:42:01;5.20;97.70
51739;DHT22;37815;52.692;6.226;2022-12-17T19:47:02;3.70;97.40
51739;DHT22;37815;52.692;6.226;2022-12-17T19:52:03;4.00;97.40
51739;DHT22;37815;52.692;6.226;2022-12-17T19:57:04;3.70;97.40
51739;DHT22;37815;52.692;6.226;2022-12-17T20:02:05;3.70;97.30
51739;DHT22;37815;52.692;6.226;2022-12-17T20:07:09;3.70;97.30
51739;DHT22;37815;52.692;6.226;2022-12-17T20:12:12;3.70;97.40
51739;DHT22;37815;52.692;6.226;2022-12-17T20:17:19;3.70;97.30
51739;DHT22;37815;52.692;6.226;2022-12-17T20:22:20;3.70;97.40
51739;DHT22;37815;52.692;6.226;2022-12-17T20:27:21;5.30;97.70
51739;DHT22;37815;52.692;6.226;2022-12-17T20:32:21;3.70;97.20
51739;DHT22;37815;52.692;6.226;2022-12-17T20:37:22;3.60;97.20
51739;DHT22;37815;52.692;6.226;2022-12-17T20:42:22;3.70;97.20
51739;DHT22;37815;52.692;6.226;2022-12-17T20:47:23;4.30;97.30
51739;DHT22;37815;52.692;6.226;2022-12-17T20:52:24;3.60;97.20
51739;DHT22;37815;52.692;6.226;2022-12-17T20:57:24;3.60;97.10
51739;DHT22;37815;52.692;6.226;2022-12-17T21:02:25;3.60;97.20
51739;DHT22;37815;52.692;6.226;2022-12-17T21:07:26;3.60;97.10
51739;DHT22;37815;52.692;6.226;2022-12-17T21:12:26;3.90;97.20
51739;DHT22;37815;52.692;6.226;2022-12-17T21:17:47;3.60;97.10
51739;DHT22;37815;52.692;6.226;2022-12-17T21:22:48;5.10;97.50
51739;DHT22;37815;52.692;6.226;2022-12-17T21:27:54;3.60;97.10
51739;DHT22;37815;52.692;6.226;2022-12-17T21:32:55;3.60;97.10
51739;DHT22;37815;52.692;6.226;2022-12-17T21:37:56;3.60;97.10
51739;DHT22;37815;52.692;6.226;2022-12-17T21:42:56;3.60;97.10
51739;DHT22;37815;52.692;6.226;2022-12-17T21:48:07;4.30;97.20
51739;DHT22;37815;52.692;6.226;2022-12-17T21:53:12;4.30;97.20
51739;DHT22;37815;52.692;6.226;2022-12-17T21:58:13;4.70;97.40
51739;DHT22;37815;52.692;6.226;2022-12-17T22:03:14;3.80;97.10
51739;DHT22;37815;52.692;6.226;2022-12-17T22:08:15;3.50;97.00
51739;DHT22;37815;52.692;6.226;2022-12-17T22:13:16;4.80;97.30
51739;DHT22;37815;52.692;6.226;2022-12-17T22:18:35;3.50;97.00
51739;DHT22;37815;52.692;6.226;2022-12-17T22:23:36;3.50;96.80
51739;DHT22;37815;52.692;6.226;2022-12-17T22:28:36;3.50;96.90
51739;DHT22;37815;52.692;6.226;2022-12-17T22:33:37;4.30;97.10
51739;DHT22;37815;52.692;6.226;2022-12-17T22:38:38;3.50;96.90
51739;DHT22;37815;52.692;6.226;2022-12-17T22:43:38;3.50;96.90
51739;DHT22;37815;52.692;6.226;2022-12-17T22:48:39;3.50;96.90
51739;DHT22;37815;52.692;6.226;2022-12-17T22:53:40;3.50;96.90
51739;DHT22;37815;52.692;6.226;2022-12-17T22:58:40;3.50;97.10
51739;DHT22;37815;52.692;6.226;2022-12-17T23:03:44;3.50;96.90
51739;DHT22;37815;52.692;6.226;2022-12-17T23:08:45;4.10;97.10
51739;DHT22;37815;52.692;6.226;2022-12-17T23:13:46;3.40;97.00
51739;DHT22;37815;52.692;6.226;2022-12-17T23:18:48;3.40;96.90
51739;DHT22;37815;52.692;6.226;2022-12-17T23:23:53;3.40;96.90
51739;DHT22;37815;52.692;6.226;2022-12-17T23:28:56;3.40;96.90
51739;DHT22;37815;52.692;6.226;2022-12-17T23:33:58;3.70;96.90
51739;DHT22;37815;52.692;6.226;2022-12-17T23:38:59;3.40;96.90
51739;DHT22;37815;52.692;6.226;2022-12-17T23:43:59;3.40;96.90
51739;DHT22;37815;52.692;6.226;2022-12-17T23:49:03;3.40;96.80
51739;DHT22;37815;52.692;6.226;2022-12-17T23:54:05;3.60;96.90
51739;DHT22;37815;52.692;6.226;2022-12-17T23:59:06;3.40;96.80
